sensor_id;sensor_type;location;lat;lon;timestamp;pressure;altitude;pressure_sealevel;temperature;humidity
43838;BME280;65998;46.256;7.534;2022-12-29T00:00:10;87083.94;;;17.73;47.33
43838;BME280;65998;46.256;7.534;2022-12-29T00:02:56;87085.63;;;17.84;47.74
43838;BME280;65998;46.256;7.534;2022-12-29T00:05:23;87078.88;;;17.98;47.63
43838;BME280;65998;46.256;7.534;2022-12-29T00:07:49;87079.34;;;18.05;47.76
43838;BME280;65998;46.256;7.534;2022-12-29T00:10:15;87076.13;;;18.17;47.59
43838;BME280;65998;46.256;7.534;2022-12-29T00:12:41;87070.88;;;18.28;47.48
43838;BME280;65998;46.256;7.534;2022-12-29T00:15:26;87067.75;;;18.38;47.52
43838;BME280;65998;46.256;7.534;2022-12-29T00:18:04;87075.72;;;18.48;47.22
43838;BME280;65998;46.256;7.534;2022-12-29T00:20:35;87071.28;;;18.55;47.37
43838;BME280;65998;46.256;7.534;2022-12-29T00:23:20;87069.56;;;18.64;47.30
43838;BME280;65998;46.256;7.534;2022-12-29T00:26:10;87069.22;;;18.74;46.86
43838;BME280;65998;46.256;7.534;2022-12-29T00:28:56;87061.97;;;18.81;46.95
43838;BME280;65998;46.256;7.534;2022-12-29T00:31:41;87061.75;;;18.88;46.71
43838;BME280;65998;46.256;7.534;2022-12-29T00:34:25;87051.50;;;19.01;46.75
43838;BME280;65998;46.256;7.534;2022-12-29T00:37:10;87052.09;;;19.03;46.58
43838;BME280;65998;46.256;7.534;2022-12-29T00:39:36;87047.56;;;19.12;46.46
43838;BME280;65998;46.256;7.534;2022-12-29T00:42:20;87051.72;;;19.30;46.14
43838;BME280;65998;46.256;7.534;2022-12-29T00:45:05;87046.31;;;19.43;46.21
43838;BME280;65998;46.256;7.534;2022-12-29T00:47:31;87038.16;;;19.56;45.99
43838;BME280;65998;46.256;7.534;2022-12-29T00:49:57;87044.00;;;19.66;45.97
43838;BME280;65998;46.256;7.534;2022-12-29T00:52:23;87030.22;;;19.62;46.67
43838;BME280;65998;46.256;7.534;2022-12-29T00:54:49;87029.47;;;19.64;46.39
43838;BME280;65998;46.256;7.534;2022-12-29T00:57:14;87029.63;;;19.60;46.54
43838;BME280;65998;46.256;7.534;2022-12-29T00:59:41;87029.38;;;19.66;46.58
43838;BME280;65998;46.256;7.534;2022-12-29T01:02:09;87037.50;;;19.72;46.34
43838;BME280;65998;46.256;7.534;2022-12-29T01:04:35;87031.75;;;19.76;46.00
43838;BME280;65998;46.256;7.534;2022-12-29T01:07:01;87040.19;;;19.74;46.27
43838;BME280;65998;46.256;7.534;2022-12-29T01:09:27;87031.16;;;19.73;46.19
43838;BME280;65998;46.256;7.534;2022-12-29T01:12:12;87033.81;;;19.77;46.20
43838;BME280;65998;46.256;7.534;2022-12-29T01:14:39;87035.97;;;19.75;46.46
43838;BME280;65998;46.256;7.534;2022-12-29T01:17:05;87042.16;;;19.77;46.08
43838;BME280;65998;46.256;7.534;2022-12-29T01:19:32;87045.53;;;19.80;46.38
43838;BME280;65998;46.256;7.534;2022-12-29T01:21:58;87044.34;;;19.75;46.21
43838;BME280;65998;46.256;7.534;2022-12-29T01:24:24;87039.22;;;19.82;46.25
43838;BME280;65998;46.256;7.534;2022-12-29T01:26:51;87041.41;;;19.79;46.25
43838;BME280;65998;46.256;7.534;2022-12-29T01:29:18;87043.34;;;19.83;45.90
43838;BME280;65998;46.256;7.534;2022-12-29T01:31:44;87050.19;;;19.86;46.30
43838;BME280;65998;46.256;7.534;2022-12-29T01:34:10;87041.16;;;19.85;46.08
43838;BME280;65998;46.256;7.534;2022-12-29T01:36:36;87045.88;;;19.89;45.89
43838;BME280;65998;46.256;7.534;2022-12-29T01:39:02;87033.19;;;19.92;45.85
43838;BME280;65998;46.256;7.534;2022-12-29T01:41:28;87036.66;;;19.92;45.78
43838;BME280;65998;46.256;7.534;2022-12-29T01:43:57;87040.97;;;19.89;45.67
43838;BME280;65998;46.256;7.534;2022-12-29T01:46:39;87054.91;;;19.89;45.77
43838;BME280;65998;46.256;7.534;2022-12-29T01:49:22;87050.19;;;19.86;45.89
43838;BME280;65998;46.256;7.534;2022-12-29T01:52:00;87055.25;;;19.81;46.01
43838;BME280;65998;46.256;7.534;2022-12-29T01:54:45;87058.81;;;19.80;45.92
43838;BME280;65998;46.256;7.534;2022-12-29T01:57:14;87053.22;;;19.80;46.13
43838;BME280;65998;46.256;7.534;2022-12-29T01:59:47;87060.38;;;19.74;46.08
43838;BME280;65998;46.256;7.534;2022-12-29T02:02:16;87064.03;;;19.71;46.11
43838;BME280;65998;46.256;7.534;2022-12-29T02:04:43;87066.06;;;19.72;46.27
43838;BME280;65998;46.256;7.534;2022-12-29T02:07:21;87059.88;;;19.70;46.07
43838;BME280;65998;46.256;7.534;2022-12-29T02:09:50;87063.25;;;19.72;46.19
43838;BME280;65998;46.256;7.534;2022-12-29T02:12:19;87069.09;;;19.66;46.10
43838;BME280;65998;46.256;7.534;2022-12-29T02:14:47;87070.44;;;19.67;46.18
43838;BME280;65998;46.256;7.534;2022-12-29T02:17:49;87074.06;;;19.64;46.06
43838;BME280;65998;46.256;7.534;2022-12-29T02:44:36;87020.47;;;19.28;46.28
43838;BME280;65998;46.256;7.534;2022-12-29T02:50:03;87013.97;;;19.17;46.35
43838;BME280;65998;46.256;7.534;2022-12-29T02:52:36;87017.59;;;19.13;46.38
43838;BME280;65998;46.256;7.534;2022-12-29T02:55:03;87015.56;;;19.11;46.24
43838;BME280;65998;46.256;7.534;2022-12-29T02:57:34;87020.03;;;19.04;46.34
43838;BME280;65998;46.256;7.534;2022-12-29T03:00:10;87020.09;;;19.02;46.33
43838;BME280;65998;46.256;7.534;2022-12-29T03:02:56;87019.50;;;19.00;46.17
43838;BME280;65998;46.256;7.534;2022-12-29T03:11:02;87018.41;;;18.93;46.50
43838;BME280;65998;46.256;7.534;2022-12-29T03:16:53;87005.78;;;18.77;46.69
43838;BME280;65998;46.256;7.534;2022-12-29T03:19:35;87006.00;;;18.71;46.75
43838;BME280;65998;46.256;7.534;2022-12-29T03:22:04;87001.19;;;18.69;46.65
43838;BME280;65998;46.256;7.534;2022-12-29T03:24:52;87006.91;;;18.65;46.44
43838;BME280;65998;46.256;7.534;2022-12-29T03:27:31;87001.50;;;18.61;46.78
43838;BME280;65998;46.256;7.534;2022-12-29T03:30:01;86995.31;;;18.59;46.67
43838;BME280;65998;46.256;7.534;2022-12-29T03:32:53;86998.94;;;18.55;46.67
43838;BME280;65998;46.256;7.534;2022-12-29T03:35:22;86984.41;;;18.52;46.80
43838;BME280;65998;46.256;7.534;2022-12-29T03:37:58;86995.03;;;18.48;46.63
43838;BME280;65998;46.256;7.534;2022-12-29T03:40:27;87001.41;;;18.44;46.49
43838;BME280;65998;46.256;7.534;2022-12-29T03:42:55;86998.72;;;18.42;46.62
43838;BME280;65998;46.256;7.534;2022-12-29T03:45:21;86996.09;;;18.38;46.58
43838;BME280;65998;46.256;7.534;2022-12-29T03:47:47;87000.97;;;18.38;46.56
43838;BME280;65998;46.256;7.534;2022-12-29T03:50:13;86994.28;;;18.31;46.80
43838;BME280;65998;46.256;7.534;2022-12-29T03:52:39;87005.25;;;18.35;46.72
43838;BME280;65998;46.256;7.534;2022-12-29T03:55:05;86992.94;;;18.30;46.55
43838;BME280;65998;46.256;7.534;2022-12-29T03:57:31;86994.88;;;18.33;46.63
43838;BME280;65998;46.256;7.534;2022-12-29T03:59:57;86987.44;;;18.28;46.50
43838;BME280;65998;46.256;7.534;2022-12-29T04:02:23;86991.66;;;18.27;46.52
43838;BME280;65998;46.256;7.534;2022-12-29T04:04:49;86982.03;;;18.24;46.41
43838;BME280;65998;46.256;7.534;2022-12-29T04:07:15;86978.56;;;18.23;46.38
43838;BME280;65998;46.256;7.534;2022-12-29T04:09:41;86964.16;;;18.18;46.67
43838;BME280;65998;46.256;7.534;2022-12-29T04:12:07;86964.91;;;18.17;46.23
43838;BME280;65998;46.256;7.534;2022-12-29T04:14:33;86965.72;;;18.13;46.22
43838;BME280;65998;46.256;7.534;2022-12-29T04:16:59;86973.47;;;18.11;46.39
43838;BME280;65998;46.256;7.534;2022-12-29T04:19:25;86978.34;;;18.10;46.27
43838;BME280;65998;46.256;7.534;2022-12-29T04:21:51;86978.50;;;18.06;46.21
43838;BME280;65998;46.256;7.534;2022-12-29T04:24:17;86988.28;;;18.05;46.20
43838;BME280;65998;46.256;7.534;2022-12-29T04:26:43;86991.19;;;18.01;46.26
43838;BME280;65998;46.256;7.534;2022-12-29T04:29:09;86989.91;;;17.98;46.14
43838;BME280;65998;46.256;7.534;2022-12-29T04:31:35;86985.09;;;17.97;46.18
43838;BME280;65998;46.256;7.534;2022-12-29T04:34:01;86987.28;;;17.94;46.07
43838;BME280;65998;46.256;7.534;2022-12-29T04:36:27;86989.47;;;17.92;46.10
43838;BME280;65998;46.256;7.534;2022-12-29T04:38:53;86986.75;;;17.90;45.95
43838;BME280;65998;46.256;7.534;2022-12-29T04:41:18;86987.59;;;17.86;46.00
43838;BME280;65998;46.256;7.534;2022-12-29T04:43:45;86985.56;;;17.84;46.01
43838;BME280;65998;46.256;7.534;2022-12-29T04:46:10;86978.63;;;17.83;46.03
43838;BME280;65998;46.256;7.534;2022-12-29T04:48:36;86971.19;;;17.78;45.97
43838;BME280;65998;46.256;7.534;2022-12-29T04:51:04;86973.31;;;17.77;45.83
43838;BME280;65998;46.256;7.534;2022-12-29T04:53:30;86974.81;;;17.74;45.84
43838;BME280;65998;46.256;7.534;2022-12-29T04:55:56;86969.31;;;17.72;45.77
43838;BME280;65998;46.256;7.534;2022-12-29T04:58:22;86977.03;;;17.70;45.89
43838;BME280;65998;46.256;7.534;2022-12-29T05:00:48;86974.31;;;17.68;45.78
43838;BME280;65998;46.256;7.534;2022-12-29T05:03:14;86967.44;;;17.65;45.69
43838;BME280;65998;46.256;7.534;2022-12-29T05:05:40;86975.19;;;17.62;45.76
43838;BME280;65998;46.256;7.534;2022-12-29T05:08:07;86969.03;;;17.60;45.53
43838;BME280;65998;46.256;7.534;2022-12-29T05:10:32;86966.31;;;17.58;45.55
43838;BME280;65998;46.256;7.534;2022-12-29T05:12:59;86965.72;;;17.55;45.70
43838;BME280;65998;46.256;7.534;2022-12-29T05:15:25;86957.44;;;17.53;45.47
43838;BME280;65998;46.256;7.534;2022-12-29T05:17:51;86958.19;;;17.51;45.69
43838;BME280;65998;46.256;7.534;2022-12-29T05:20:17;86958.25;;;17.49;45.44
43838;BME280;65998;46.256;7.534;2022-12-29T05:22:44;86950.75;;;17.46;45.58
43838;BME280;65998;46.256;7.534;2022-12-29T05:25:10;86963.28;;;17.45;45.44
43838;BME280;65998;46.256;7.534;2022-12-29T05:27:36;86952.91;;;17.43;45.38
43838;BME280;65998;46.256;7.534;2022-12-29T05:30:02;86962.00;;;17.42;45.44
43838;BME280;65998;46.256;7.534;2022-12-29T05:32:29;86956.59;;;17.38;45.42
43838;BME280;65998;46.256;7.534;2022-12-29T05:34:55;86960.78;;;17.37;45.43
43838;BME280;65998;46.256;7.534;2022-12-29T05:37:21;86960.84;;;17.35;45.64
43838;BME280;65998;46.256;7.534;2022-12-29T05:39:46;86959.50;;;17.34;45.54
43838;BME280;65998;46.256;7.534;2022-12-29T05:42:12;86961.69;;;17.31;45.61
43838;BME280;65998;46.256;7.534;2022-12-29T05:44:38;86953.41;;;17.29;45.42
43838;BME280;65998;46.256;7.534;2022-12-29T05:47:04;86965.34;;;17.26;45.31
43838;BME280;65998;46.256;7.534;2022-12-29T05:49:30;86968.88;;;17.24;45.25
43838;BME280;65998;46.256;7.534;2022-12-29T05:51:56;86967.56;;;17.21;45.19
43838;BME280;65998;46.256;7.534;2022-12-29T05:54:22;86960.00;;;17.19;45.55
43838;BME280;65998;46.256;7.534;2022-12-29T05:56:48;86968.41;;;17.17;45.47
43838;BME280;65998;46.256;7.534;2022-12-29T05:59:14;86964.34;;;17.14;45.63
43838;BME280;65998;46.256;7.534;2022-12-29T06:01:40;86962.97;;;17.13;45.46
43838;BME280;65998;46.256;7.534;2022-12-29T06:04:06;86965.81;;;17.11;45.66
43838;BME280;65998;46.256;7.534;2022-12-29T06:06:32;86968.66;;;17.09;45.48
43838;BME280;65998;46.256;7.534;2022-12-29T06:08:58;86974.97;;;17.08;45.64
43838;BME280;65998;46.256;7.534;2022-12-29T06:11:24;86964.59;;;17.06;45.44
43838;BME280;65998;46.256;7.534;2022-12-29T06:13:50;86966.78;;;17.04;45.42
43838;BME280;65998;46.256;7.534;2022-12-29T06:16:16;86969.63;;;17.02;45.32
43838;BME280;65998;46.256;7.534;2022-12-29T06:18:42;86971.72;;;17.01;45.25
43838;BME280;65998;46.256;7.534;2022-12-29T06:21:08;86965.63;;;16.97;45.34
43838;BME280;65998;46.256;7.534;2022-12-29T06:23:34;86975.38;;;16.96;45.36
43838;BME280;65998;46.256;7.534;2022-12-29T06:26:00;86985.78;;;16.95;45.14
43838;BME280;65998;46.256;7.534;2022-12-29T06:28:26;86971.31;;;16.92;45.36
43838;BME280;65998;46.256;7.534;2022-12-29T06:30:52;86972.13;;;16.89;45.55
43838;BME280;65998;46.256;7.534;2022-12-29T06:33:18;86979.84;;;16.86;45.47
43838;BME280;65998;46.256;7.534;2022-12-29T06:35:45;86979.22;;;16.84;45.51
43838;BME280;65998;46.256;7.534;2022-12-29T06:38:11;86975.09;;;16.83;45.51
43838;BME280;65998;46.256;7.534;2022-12-29T06:40:38;86979.28;;;16.82;45.41
43838;BME280;65998;46.256;7.534;2022-12-29T06:43:04;86977.88;;;16.83;45.51
43838;BME280;65998;46.256;7.534;2022-12-29T06:45:30;86968.88;;;16.82;45.46
43838;BME280;65998;46.256;7.534;2022-12-29T06:47:55;86965.34;;;16.84;45.48
43838;BME280;65998;46.256;7.534;2022-12-29T06:50:22;86961.16;;;16.85;45.43
43838;BME280;65998;46.256;7.534;2022-12-29T06:52:47;86956.28;;;16.85;45.32
43838;BME280;65998;46.256;7.534;2022-12-29T06:55:13;86956.28;;;16.85;45.62
43838;BME280;65998;46.256;7.534;2022-12-29T06:57:39;86950.66;;;16.87;45.55
43838;BME280;65998;46.256;7.534;2022-12-29T07:00:06;86958.09;;;16.93;45.24
43838;BME280;65998;46.256;7.534;2022-12-29T07:02:32;86965.69;;;16.95;45.54
43838;BME280;65998;46.256;7.534;2022-12-29T07:04:58;86958.66;;;16.98;45.69
43838;BME280;65998;46.256;7.534;2022-12-29T07:07:24;86973.13;;;17.00;45.59
43838;BME280;65998;46.256;7.534;2022-12-29T07:09:50;86964.06;;;17.02;45.61
43838;BME280;65998;46.256;7.534;2022-12-29T07:12:16;86954.31;;;17.03;45.88
43838;BME280;65998;46.256;7.534;2022-12-29T07:14:42;86965.41;;;17.03;45.66
43838;BME280;65998;46.256;7.534;2022-12-29T07:17:08;86965.41;;;17.03;45.52
43838;BME280;65998;46.256;7.534;2022-12-29T07:19:34;86965.41;;;17.03;45.46
43838;BME280;65998;46.256;7.534;2022-12-29T07:22:00;86968.19;;;17.03;45.44
43838;BME280;65998;46.256;7.534;2022-12-29T07:24:27;86959.19;;;17.02;45.37
43838;BME280;65998;46.256;7.534;2022-12-29T07:26:52;86964.00;;;17.04;45.32
43838;BME280;65998;46.256;7.534;2022-12-29T07:29:19;86959.78;;;17.05;45.38
43838;BME280;65998;46.256;7.534;2022-12-29T07:31:44;86966.03;;;17.05;45.37
43838;BME280;65998;46.256;7.534;2022-12-29T07:34:11;86958.38;;;17.06;45.23
43838;BME280;65998;46.256;7.534;2022-12-29T07:36:36;86968.75;;;17.07;45.12
43838;BME280;65998;46.256;7.534;2022-12-29T07:39:03;86963.84;;;17.08;45.11
43838;BME280;65998;46.256;7.534;2022-12-29T07:41:29;86973.53;;;17.09;45.13
43838;BME280;65998;46.256;7.534;2022-12-29T07:43:55;86976.25;;;17.11;44.97
43838;BME280;65998;46.256;7.534;2022-12-29T07:46:21;86980.25;;;17.16;44.87
43838;BME280;65998;46.256;7.534;2022-12-29T07:48:48;86976.72;;;17.17;44.86
43838;BME280;65998;46.256;7.534;2022-12-29T07:51:13;86974.50;;;17.22;44.77
43838;BME280;65998;46.256;7.534;2022-12-29T07:53:39;86971.72;;;17.22;44.55
43838;BME280;65998;46.256;7.534;2022-12-29T07:56:06;86981.31;;;17.25;44.67
43838;BME280;65998;46.256;7.534;2022-12-29T07:58:32;86978.47;;;17.27;44.53
43838;BME280;65998;46.256;7.534;2022-12-29T08:00:58;86972.19;;;17.29;44.51
43838;BME280;65998;46.256;7.534;2022-12-29T08:03:24;86973.53;;;17.30;44.51
43838;BME280;65998;46.256;7.534;2022-12-29T08:05:51;86963.72;;;17.33;44.33
43838;BME280;65998;46.256;7.534;2022-12-29T08:08:17;86971.38;;;17.32;44.44
43838;BME280;65998;46.256;7.534;2022-12-29T08:10:43;86979.63;;;17.34;44.47
43838;BME280;65998;46.256;7.534;2022-12-29T08:13:10;86976.84;;;17.34;44.39
43838;BME280;65998;46.256;7.534;2022-12-29T08:15:38;86976.16;;;17.34;44.24
43838;BME280;65998;46.256;7.534;2022-12-29T08:18:04;86978.94;;;17.34;44.48
43838;BME280;65998;46.256;7.534;2022-12-29T08:20:30;86978.28;;;17.33;44.27
43838;BME280;65998;46.256;7.534;2022-12-29T08:22:56;86987.97;;;17.34;44.41
43838;BME280;65998;46.256;7.534;2022-12-29T08:25:22;86983.91;;;17.31;44.35
43838;BME280;65998;46.256;7.534;2022-12-29T08:27:48;86999.81;;;17.33;44.27
43838;BME280;65998;46.256;7.534;2022-12-29T08:30:14;87002.53;;;17.35;44.12
43838;BME280;65998;46.256;7.534;2022-12-29T08:32:41;87008.81;;;17.33;44.07
43838;BME280;65998;46.256;7.534;2022-12-29T08:35:07;87005.38;;;17.33;44.32
43838;BME280;65998;46.256;7.534;2022-12-29T08:37:34;87009.56;;;17.32;44.26
43838;BME280;65998;46.256;7.534;2022-12-29T08:40:00;87011.75;;;17.29;44.09
43838;BME280;65998;46.256;7.534;2022-12-29T08:42:30;87003.41;;;17.29;44.09
43838;BME280;65998;46.256;7.534;2022-12-29T08:44:59;87008.34;;;17.27;44.24
43838;BME280;65998;46.256;7.534;2022-12-29T08:47:26;87018.78;;;17.26;44.17
43838;BME280;65998;46.256;7.534;2022-12-29T08:49:52;87028.53;;;17.25;44.10
43838;BME280;65998;46.256;7.534;2022-12-29T08:52:19;87028.53;;;17.25;44.03
43838;BME280;65998;46.256;7.534;2022-12-29T08:54:45;87023.72;;;17.23;44.14
43838;BME280;65998;46.256;7.534;2022-12-29T08:57:11;87028.66;;;17.21;44.00
43838;BME280;65998;46.256;7.534;2022-12-29T08:59:37;87028.00;;;17.20;44.09
43838;BME280;65998;46.256;7.534;2022-12-29T09:02:03;87035.72;;;17.18;44.03
43838;BME280;65998;46.256;7.534;2022-12-29T09:04:29;87040.59;;;17.17;44.16
43838;BME280;65998;46.256;7.534;2022-12-29T09:06:55;87044.19;;;17.14;44.22
43838;BME280;65998;46.256;7.534;2022-12-29T09:09:21;87031.72;;;17.13;44.15
43838;BME280;65998;46.256;7.534;2022-12-29T09:11:48;87030.41;;;17.10;44.35
43838;BME280;65998;46.256;7.534;2022-12-29T09:14:13;87043.63;;;17.09;44.14
43838;BME280;65998;46.256;7.534;2022-12-29T09:16:40;87050.00;;;17.06;44.06
43838;BME280;65998;46.256;7.534;2022-12-29T09:19:25;87047.16;;;17.08;44.13
43838;BME280;65998;46.256;7.534;2022-12-29T09:21:51;87040.84;;;17.09;44.13
43838;BME280;65998;46.256;7.534;2022-12-29T09:24:17;87035.38;;;17.07;44.20
43838;BME280;65998;46.256;7.534;2022-12-29T09:26:43;87033.94;;;17.08;44.00
43838;BME280;65998;46.256;7.534;2022-12-29T09:29:09;87033.25;;;17.08;44.01
43838;BME280;65998;46.256;7.534;2022-12-29T09:31:35;87034.69;;;17.07;43.96
43838;BME280;65998;46.256;7.534;2022-12-29T09:34:01;87029.88;;;17.05;44.15
43838;BME280;65998;46.256;7.534;2022-12-29T09:36:27;87031.31;;;17.04;44.09
43838;BME280;65998;46.256;7.534;2022-12-29T09:38:54;87034.69;;;17.07;44.13
43838;BME280;65998;46.256;7.534;2022-12-29T09:41:26;87029.94;;;17.03;43.96
43838;BME280;65998;46.256;7.534;2022-12-29T09:46:46;87029.41;;;16.99;44.07
43838;BME280;65998;46.256;7.534;2022-12-29T09:51:42;87024.66;;;16.95;44.15
43838;BME280;65998;46.256;7.534;2022-12-29T09:57:31;87021.69;;;17.01;43.97
43838;BME280;65998;46.256;7.534;2022-12-29T10:00:15;87030.00;;;17.01;44.03
43838;BME280;65998;46.256;7.534;2022-12-29T10:05:21;87020.81;;;17.07;43.43
43838;BME280;65998;46.256;7.534;2022-12-29T10:10:36;87028.25;;;17.12;43.68
43838;BME280;65998;46.256;7.534;2022-12-29T10:13:20;87018.72;;;17.28;43.79
43838;BME280;65998;46.256;7.534;2022-12-29T10:23:28;87022.31;;;17.66;44.06
43838;BME280;65998;46.256;7.534;2022-12-29T10:26:01;87019.56;;;17.64;44.23
43838;BME280;65998;46.256;7.534;2022-12-29T10:29:02;87013.53;;;17.58;44.41
43838;BME280;65998;46.256;7.534;2022-12-29T10:31:46;87002.06;;;17.70;44.40
43838;BME280;65998;46.256;7.534;2022-12-29T10:37:10;87000.50;;;17.75;44.44
43838;BME280;65998;46.256;7.534;2022-12-29T10:39:58;87003.81;;;17.79;44.83
43838;BME280;65998;46.256;7.534;2022-12-29T10:42:45;86991.94;;;17.81;44.75
43838;BME280;65998;46.256;7.534;2022-12-29T10:45:15;86994.31;;;17.72;45.07
43838;BME280;65998;46.256;7.534;2022-12-29T10:48:17;86987.31;;;17.52;42.29
43838;BME280;65998;46.256;7.534;2022-12-29T10:51:25;86981.03;;;17.75;44.62
43838;BME280;65998;46.256;7.534;2022-12-29T10:54:05;86981.78;;;17.73;45.14
43838;BME280;65998;46.256;7.534;2022-12-29T10:59:25;86960.16;;;17.95;44.52
43838;BME280;65998;46.256;7.534;2022-12-29T11:07:18;86960.09;;;18.15;45.03
43838;BME280;65998;46.256;7.534;2022-12-29T11:12:56;86967.22;;;18.29;44.89
43838;BME280;65998;46.256;7.534;2022-12-29T11:15:25;86964.88;;;18.36;44.96
43838;BME280;65998;46.256;7.534;2022-12-29T11:18:17;86958.16;;;18.47;44.99
43838;BME280;65998;46.256;7.534;2022-12-29T11:21:01;86962.00;;;18.57;45.17
43838;BME280;65998;46.256;7.534;2022-12-29T11:23:37;86963.81;;;18.64;45.22
43838;BME280;65998;46.256;7.534;2022-12-29T11:26:19;86956.28;;;18.61;45.72
43838;BME280;65998;46.256;7.534;2022-12-29T11:29:11;86961.84;;;18.79;45.18
43838;BME280;65998;46.256;7.534;2022-12-29T11:32:20;86953.69;;;18.92;45.87
43838;BME280;65998;46.256;7.534;2022-12-29T11:35:13;86940.44;;;19.09;46.80
43838;BME280;65998;46.256;7.534;2022-12-29T11:37:53;86941.63;;;19.48;47.98
43838;BME280;65998;46.256;7.534;2022-12-29T11:40:22;86935.63;;;19.58;46.31
43838;BME280;65998;46.256;7.534;2022-12-29T11:42:51;86937.31;;;19.68;46.06
43838;BME280;65998;46.256;7.534;2022-12-29T11:45:20;86941.78;;;19.77;45.64
43838;BME280;65998;46.256;7.534;2022-12-29T11:47:51;86932.50;;;19.83;45.82
43838;BME280;65998;46.256;7.534;2022-12-29T11:50:21;86925.19;;;19.90;46.00
43838;BME280;65998;46.256;7.534;2022-12-29T11:52:50;86925.13;;;19.92;46.21
43838;BME280;65998;46.256;7.534;2022-12-29T11:55:25;86922.72;;;19.99;47.01
43838;BME280;65998;46.256;7.534;2022-12-29T11:57:54;86917.06;;;20.01;47.09
43838;BME280;65998;46.256;7.534;2022-12-29T12:00:22;86910.03;;;20.02;47.63
43838;BME280;65998;46.256;7.534;2022-12-29T12:03:19;86901.75;;;20.00;47.68
43838;BME280;65998;46.256;7.534;2022-12-29T12:11:20;86879.38;;;20.17;46.99
43838;BME280;65998;46.256;7.534;2022-12-29T12:16:28;86877.75;;;20.22;47.01
43838;BME280;65998;46.256;7.534;2022-12-29T12:19:09;86881.41;;;20.18;47.83
43838;BME280;65998;46.256;7.534;2022-12-29T12:21:41;86869.00;;;20.15;47.68
43838;BME280;65998;46.256;7.534;2022-12-29T12:24:34;86873.31;;;20.12;47.54
43838;BME280;65998;46.256;7.534;2022-12-29T12:27:03;86855.59;;;20.03;48.66
43838;BME280;65998;46.256;7.534;2022-12-29T12:34:40;86842.53;;;19.99;48.10
43838;BME280;65998;46.256;7.534;2022-12-29T12:39:53;86828.19;;;19.93;48.60
43838;BME280;65998;46.256;7.534;2022-12-29T12:45:34;86831.94;;;19.87;48.49
43838;BME280;65998;46.256;7.534;2022-12-29T12:50:52;86816.81;;;19.82;48.49
43838;BME280;65998;46.256;7.534;2022-12-29T12:53:29;86816.91;;;19.80;48.49
43838;BME280;65998;46.256;7.534;2022-12-29T13:12:55;86769.78;;;17.94;38.63
43838;BME280;65998;46.256;7.534;2022-12-29T13:21:40;86767.38;;;19.03;44.88
43838;BME280;65998;46.256;7.534;2022-12-29T13:24:47;86771.72;;;19.14;45.27
43838;BME280;65998;46.256;7.534;2022-12-29T13:35:30;86774.44;;;19.17;42.70
43838;BME280;65998;46.256;7.534;2022-12-29T13:38:09;86771.50;;;19.04;43.96
43838;BME280;65998;46.256;7.534;2022-12-29T13:40:41;86778.69;;;17.79;42.79
43838;BME280;65998;46.256;7.534;2022-12-29T13:43:09;86770.72;;;18.05;43.69
43838;BME280;65998;46.256;7.534;2022-12-29T13:45:35;86771.25;;;18.43;44.82
43838;BME280;65998;46.256;7.534;2022-12-29T13:48:20;86766.88;;;18.65;45.57
43838;BME280;65998;46.256;7.534;2022-12-29T13:50:53;86764.38;;;18.75;46.39
43838;BME280;65998;46.256;7.534;2022-12-29T13:56:41;86765.88;;;18.89;46.57
43838;BME280;65998;46.256;7.534;2022-12-29T13:59:15;86765.28;;;18.87;46.54
43838;BME280;65998;46.256;7.534;2022-12-29T18:42:48;86799.19;;;18.91;47.71
43838;BME280;65998;46.256;7.534;2022-12-29T18:45:18;86793.28;;;18.99;47.72
43838;BME280;65998;46.256;7.534;2022-12-29T18:47:45;86799.44;;;19.02;47.88
43838;BME280;65998;46.256;7.534;2022-12-29T18:50:13;86798.41;;;19.09;47.56
43838;BME280;65998;46.256;7.534;2022-12-29T18:52:39;86797.56;;;19.13;47.61
43838;BME280;65998;46.256;7.534;2022-12-29T18:55:26;86800.75;;;19.20;47.98
43838;BME280;65998;46.256;7.534;2022-12-29T18:57:54;86804.03;;;19.24;46.97
43838;BME280;65998;46.256;7.534;2022-12-29T19:00:21;86814.50;;;19.24;47.28
43838;BME280;65998;46.256;7.534;2022-12-29T19:02:49;86819.97;;;19.26;47.64
43838;BME280;65998;46.256;7.534;2022-12-29T19:07:52;86814.00;;;19.19;47.56
43838;BME280;65998;46.256;7.534;2022-12-29T19:10:20;86810.44;;;19.21;47.56
43838;BME280;65998;46.256;7.534;2022-12-29T19:12:47;86811.72;;;19.24;47.21
43838;BME280;65998;46.256;7.534;2022-12-29T19:15:28;86810.69;;;19.31;47.93
43838;BME280;65998;46.256;7.534;2022-12-29T19:17:56;86815.22;;;19.39;47.78
43838;BME280;65998;46.256;7.534;2022-12-29T19:22:57;86834.13;;;19.53;47.57
43838;BME280;65998;46.256;7.534;2022-12-29T19:25:24;86825.41;;;19.61;47.36
43838;BME280;65998;46.256;7.534;2022-12-29T19:27:51;86826.38;;;19.70;47.91
43838;BME280;65998;46.256;7.534;2022-12-29T19:30:19;86826.19;;;19.74;47.28
43838;BME280;65998;46.256;7.534;2022-12-29T19:32:49;86818.25;;;19.81;46.79
43838;BME280;65998;46.256;7.534;2022-12-29T19:35:23;86817.31;;;19.87;46.56
43838;BME280;65998;46.256;7.534;2022-12-29T19:37:50;86826.06;;;19.93;46.49
43838;BME280;65998;46.256;7.534;2022-12-29T19:40:20;86820.69;;;20.04;46.38
43838;BME280;65998;46.256;7.534;2022-12-29T19:43:00;86826.09;;;20.08;46.06
43838;BME280;65998;46.256;7.534;2022-12-29T19:45:44;86827.44;;;20.09;46.06
43838;BME280;65998;46.256;7.534;2022-12-29T19:48:48;86839.94;;;20.10;45.96
43838;BME280;65998;46.256;7.534;2022-12-29T19:51:19;86837.72;;;20.13;46.30
43838;BME280;65998;46.256;7.534;2022-12-29T19:53:55;86843.50;;;20.23;45.56
43838;BME280;65998;46.256;7.534;2022-12-29T19:56:59;86845.63;;;20.37;45.27
43838;BME280;65998;46.256;7.534;2022-12-29T19:59:34;86847.78;;;20.52;44.24
43838;BME280;65998;46.256;7.534;2022-12-29T20:02:50;86856.13;;;20.66;44.11
43838;BME280;65998;46.256;7.534;2022-12-29T20:05:37;86852.28;;;20.89;44.57
43838;BME280;65998;46.256;7.534;2022-12-29T20:12:30;86849.81;;;21.25;43.25
43838;BME280;65998;46.256;7.534;2022-12-29T20:15:01;86849.00;;;21.41;42.81
43838;BME280;65998;46.256;7.534;2022-12-29T20:17:32;86852.25;;;21.46;44.68